Time;durP1;ratioP1;P1;durP2;ratioP2;P2;SDS_P1;SDS_P2;PMS_P1;PMS_P2;Temp;Humidity;BMP_temperature;BMP_pressure;BME280_temperature;BME280_humidity;BME280_pressure;Samples;Min_cycle;Max_cycle;Signal;HPM_P1;HPM_P2
2023/04/22 00:01:34;;;;;;;2.92;1.22;;;11.30;94.10;;;;;;1924619;74;21346;-51
2023/04/22 00:04:04;;;;;;;2.70;1.30;;;11.30;94.20;;;;;;1924598;74;21237;-52
2023/04/22 00:06:33;;;;;;;3.00;1.02;;;11.30;94.10;;;;;;1924717;74;21192;-53
2023/04/22 00:09:03;;;;;;;1.70;0.98;;;11.30;94.10;;;;;;1924613;74;21137;-53
2023/04/22 00:11:32;;;;;;;1.10;0.95;;;11.30;94.00;;;;;;1924609;74;21255;-53
2023/04/22 00:14:01;;;;;;;1.82;0.80;;;11.30;94.00;;;;;;1924599;74;21177;-50
2023/04/22 00:16:30;;;;;;;2.72;0.80;;;11.30;93.90;;;;;;1924599;74;21102;-53
2023/04/22 00:18:59;;;;;;;1.75;0.80;;;11.30;93.80;;;;;;1924750;74;21066;-51
2023/04/22 00:21:29;;;;;;;1.57;1.10;;;11.30;93.60;;;;;;1924750;74;21557;-51
2023/04/22 00:23:58;;;;;;;4.17;1.40;;;11.30;93.50;;;;;;1924588;74;21341;-51
2023/04/22 00:26:27;;;;;;;1.45;1.02;;;11.30;93.50;;;;;;1924585;74;21248;-52
2023/04/22 00:28:56;;;;;;;2.37;1.07;;;11.30;93.50;;;;;;1924575;74;21158;-51
2023/04/22 00:31:26;;;;;;;3.55;1.47;;;11.30;93.60;;;;;;1924640;74;21248;-53
2023/04/22 00:33:55;;;;;;;2.87;1.00;;;11.30;93.50;;;;;;1924673;74;21251;-53
2023/04/22 00:36:26;;;;;;;6.65;1.72;;;11.20;93.50;;;;;;1924771;74;21114;-50
2023/04/22 00:38:56;;;;;;;2.08;1.12;;;11.30;93.60;;;;;;1924572;74;21375;-52
2023/04/22 00:41:25;;;;;;;2.05;1.00;;;11.30;93.70;;;;;;1924587;74;21402;-53
2023/04/22 00:43:55;;;;;;;5.70;1.62;;;11.20;93.60;;;;;;1924631;74;21629;-52
2023/04/22 00:46:24;;;;;;;3.25;1.35;;;11.30;93.70;;;;;;1924598;74;21126;-53
2023/04/22 00:48:54;;;;;;;2.75;1.35;;;11.30;93.70;;;;;;1924565;74;21295;-52
2023/04/22 00:51:25;;;;;;;3.22;1.00;;;11.30;93.70;;;;;;1924617;74;21161;-52
2023/04/22 00:53:54;;;;;;;4.22;1.37;;;11.30;93.70;;;;;;1924565;74;21066;-51
2023/04/22 00:56:26;;;;;;;2.72;1.25;;;11.30;93.70;;;;;;1924721;74;21199;-51
2023/04/22 00:58:56;;;;;;;2.50;1.12;;;11.30;93.70;;;;;;1924653;74;21128;-53
2023/04/22 01:01:26;;;;;;;1.92;1.40;;;11.30;93.70;;;;;;1924583;74;21300;-53
2023/04/22 01:03:55;;;;;;;2.60;1.40;;;11.40;93.70;;;;;;1924553;74;21351;-51
2023/04/22 01:06:25;;;;;;;2.62;1.30;;;11.40;93.60;;;;;;1924727;74;21368;-54
2023/04/22 01:08:56;;;;;;;3.70;1.10;;;11.40;93.70;;;;;;1924759;74;21207;-52
2023/04/22 01:11:25;;;;;;;5.12;1.10;;;11.40;93.60;;;;;;1924884;74;21229;-53
2023/04/22 01:13:54;;;;;;;8.53;1.50;;;11.40;93.50;;;;;;1924759;74;21678;-53
2023/04/22 01:16:23;;;;;;;1.27;1.00;;;11.40;93.50;;;;;;1924928;74;21011;-51
2023/04/22 01:18:53;;;;;;;3.40;1.50;;;11.40;93.50;;;;;;1924776;74;21082;-51
2023/04/22 01:21:23;;;;;;;2.37;1.42;;;11.40;93.50;;;;;;1924913;74;21026;-53
2023/04/22 01:23:52;;;;;;;2.85;1.40;;;11.40;93.50;;;;;;1924793;74;21196;-50
2023/04/22 01:26:21;;;;;;;3.25;1.25;;;11.30;93.40;;;;;;1924752;74;21523;-53
2023/04/22 01:28:50;;;;;;;2.85;1.50;;;11.30;93.40;;;;;;1924725;74;21068;-51
2023/04/22 01:31:19;;;;;;;2.62;1.25;;;11.40;93.40;;;;;;1924668;74;21088;-50
2023/04/22 01:33:49;;;;;;;3.05;1.15;;;11.30;93.40;;;;;;1924692;74;21035;-50
2023/04/22 01:36:18;;;;;;;3.77;1.45;;;11.30;93.40;;;;;;1924744;74;21125;-50
2023/04/22 01:38:49;;;;;;;3.00;1.20;;;11.40;93.40;;;;;;1924830;74;21165;-53
2023/04/22 01:41:18;;;;;;;3.33;1.25;;;11.40;93.40;;;;;;1924701;74;21181;-50
2023/04/22 01:43:48;;;;;;;1.25;0.95;;;11.30;93.30;;;;;;1924817;74;21039;-52
2023/04/22 01:46:17;;;;;;;1.87;0.95;;;11.30;93.30;;;;;;1924883;74;21090;-54
2023/04/22 01:48:50;;;;;;;3.12;1.50;;;11.30;93.20;;;;;;1924849;74;21075;-51
2023/04/22 01:51:23;;;;;;;2.72;1.17;;;11.30;93.30;;;;;;1924623;74;21549;-51
2023/04/22 01:53:49;;;;;;;4.53;1.42;;;11.30;93.30;;;;;;1923502;74;21532;-52
2023/04/22 01:56:18;;;;;;;4.95;1.62;;;11.30;93.20;;;;;;1924809;74;21199;-50
2023/04/22 01:58:48;;;;;;;1.42;1.15;;;11.30;93.20;;;;;;1924821;74;21062;-50
2023/04/22 02:01:16;;;;;;;6.75;1.50;;;11.30;93.20;;;;;;1924836;74;21069;-52
2023/04/22 02:03:45;;;;;;;3.22;1.52;;;11.30;93.20;;;;;;1924813;74;21085;-50
2023/04/22 02:06:14;;;;;;;2.17;1.15;;;11.30;93.10;;;;;;1924904;74;21648;-50
2023/04/22 02:08:44;;;;;;;4.30;1.67;;;11.30;93.20;;;;;;1924915;74;21494;-50
2023/04/22 02:11:14;;;;;;;1.62;1.02;;;11.40;93.20;;;;;;1924715;74;21006;-52
2023/04/22 02:13:43;;;;;;;4.00;2.25;;;11.40;93.20;;;;;;1924835;74;21006;-52
2023/04/22 02:16:12;;;;;;;1.67;1.12;;;11.40;93.20;;;;;;1924799;74;21065;-50
2023/04/22 02:18:41;;;;;;;2.37;1.20;;;11.40;93.20;;;;;;1924878;74;21150;-50
2023/04/22 02:21:10;;;;;;;3.85;2.12;;;11.40;93.20;;;;;;1924836;74;21058;-50
2023/04/22 02:23:41;;;;;;;4.35;1.52;;;11.40;93.20;;;;;;1924601;74;21158;-51
2023/04/22 02:26:11;;;;;;;4.70;1.47;;;11.40;93.20;;;;;;1924759;74;21019;-50
2023/04/22 02:28:40;;;;;;;4.17;1.40;;;11.40;93.30;;;;;;1924687;74;21442;-50
2023/04/22 02:31:09;;;;;;;2.62;1.30;;;11.40;93.20;;;;;;1924661;74;21066;-52
2023/04/22 02:33:40;;;;;;;1.95;1.32;;;11.40;93.20;;;;;;1924536;74;21141;-51
2023/04/22 02:36:10;;;;;;;3.55;1.20;;;11.50;93.20;;;;;;1924679;74;21154;-52
2023/04/22 02:38:40;;;;;;;4.87;1.70;;;11.50;93.10;;;;;;1924680;74;21047;-51
2023/04/22 02:41:09;;;;;;;2.22;1.35;;;11.50;93.10;;;;;;1924767;74;21114;-50
2023/04/22 02:43:40;;;;;;;2.60;1.60;;;11.50;93.00;;;;;;1924637;74;21220;-51
2023/04/22 02:46:11;;;;;;;1.80;1.42;;;11.50;93.00;;;;;;1924676;74;21077;-53
2023/04/22 02:48:39;;;;;;;3.37;1.32;;;11.40;93.00;;;;;;1924639;74;21106;-50
2023/04/22 02:51:09;;;;;;;4.80;1.87;;;11.50;93.10;;;;;;1924648;74;21209;-50
2023/04/22 02:53:38;;;;;;;4.25;1.60;;;11.50;93.10;;;;;;1924676;74;21150;-51
2023/04/22 02:56:08;;;;;;;1.90;1.40;;;11.50;93.10;;;;;;1924718;74;21128;-51
2023/04/22 02:58:36;;;;;;;1.82;1.60;;;11.50;93.20;;;;;;1924667;74;21062;-50
2023/04/22 03:01:06;;;;;;;2.05;1.30;;;11.50;93.10;;;;;;1924651;74;21224;-49
2023/04/22 03:03:35;;;;;;;3.98;2.00;;;11.50;93.20;;;;;;1924831;74;21058;-50
2023/04/22 03:06:05;;;;;;;4.72;1.50;;;11.50;93.20;;;;;;1924616;74;21248;-50
2023/04/22 03:08:34;;;;;;;2.25;1.32;;;11.50;93.30;;;;;;1924659;74;21185;-50
2023/04/22 03:11:04;;;;;;;3.33;1.52;;;11.50;93.30;;;;;;1924659;74;21276;-52
2023/04/22 03:13:33;;;;;;;3.33;1.92;;;11.50;93.30;;;;;;1924557;74;21267;-52
2023/04/22 03:16:02;;;;;;;3.50;1.82;;;11.50;93.40;;;;;;1924685;74;21043;-51
2023/04/22 03:18:31;;;;;;;3.58;1.82;;;11.50;93.50;;;;;;1924633;74;21157;-51
2023/04/22 03:21:01;;;;;;;2.95;1.32;;;11.50;93.50;;;;;;1924835;74;21191;-50
2023/04/22 03:23:30;;;;;;;2.02;1.62;;;11.50;93.50;;;;;;1924718;74;21497;-50
2023/04/22 03:25:59;;;;;;;2.25;1.27;;;11.50;93.50;;;;;;1924578;74;21308;-50
2023/04/22 03:28:29;;;;;;;3.52;2.33;;;11.60;93.50;;;;;;1924677;74;21101;-53
2023/04/22 03:30:58;;;;;;;4.72;1.70;;;11.60;93.60;;;;;;1924765;74;21290;-53
2023/04/22 03:33:27;;;;;;;5.47;1.90;;;11.60;93.50;;;;;;1924752;74;21074;-54
2023/04/22 03:35:58;;;;;;;2.12;1.92;;;11.60;93.50;;;;;;1924136;74;21122;-53
2023/04/22 03:38:28;;;;;;;2.95;1.40;;;11.60;93.50;;;;;;1924678;74;21074;-53
2023/04/22 03:40:57;;;;;;;2.00;1.52;;;11.60;93.50;;;;;;1924872;74;21042;-53
2023/04/22 03:43:31;;;;;;;3.50;1.60;;;11.60;93.40;;;;;;1923886;74;21138;-52
2023/04/22 03:46:02;;;;;;;5.10;1.55;;;11.60;93.40;;;;;;1924241;74;21656;-53
2023/04/22 03:48:35;;;;;;;3.50;2.08;;;11.60;93.40;;;;;;1924639;74;21114;-50
2023/04/22 03:51:05;;;;;;;2.40;1.10;;;11.60;93.40;;;;;;1924290;74;21581;-52
2023/04/22 03:53:36;;;;;;;2.58;1.20;;;11.70;93.40;;;;;;1924522;74;21270;-51
2023/04/22 03:56:05;;;;;;;4.15;1.10;;;11.70;93.40;;;;;;1924806;74;21271;-52
2023/04/22 03:58:36;;;;;;;3.40;1.30;;;11.70;93.40;;;;;;1924705;74;21110;-52
2023/04/22 04:01:07;;;;;;;4.62;1.50;;;11.70;93.30;;;;;;1924620;74;21080;-53
2023/04/22 04:03:36;;;;;;;6.78;2.02;;;11.70;93.30;;;;;;1924574;74;21132;-53
2023/04/22 04:06:07;;;;;;;4.30;1.30;;;11.70;93.30;;;;;;1903990;74;21071;-51
2023/04/22 04:08:36;;;;;;;2.87;1.50;;;11.80;93.30;;;;;;1924727;74;21126;-50
2023/04/22 04:11:06;;;;;;;4.15;1.50;;;11.80;93.30;;;;;;1924711;74;21121;-50
2023/04/22 04:13:35;;;;;;;5.03;1.82;;;11.80;93.30;;;;;;1924598;74;21134;-52
2023/04/22 04:16:24;;;;;;;3.58;1.30;;;11.90;93.30;;;;;;1924103;74;21288;-53
2023/04/22 04:18:55;;;;;;;4.62;1.27;;;11.90;93.30;;;;;;1924100;74;21166;-52
2023/04/22 04:21:25;;;;;;;3.33;1.60;;;11.90;93.20;;;;;;1924674;74;21071;-52
2023/04/22 04:23:56;;;;;;;2.37;1.57;;;12.00;93.30;;;;;;1924414;74;21177;-53
2023/04/22 04:26:27;;;;;;;6.75;1.62;;;12.10;93.20;;;;;;1924223;74;21126;-50
2023/04/22 04:28:58;;;;;;;2.83;1.50;;;12.10;93.20;;;;;;1923840;74;21071;-53
2023/04/22 04:31:29;;;;;;;3.20;1.35;;;12.20;93.20;;;;;;1924654;74;21082;-51
2023/04/22 04:33:59;;;;;;;2.37;1.30;;;12.30;93.20;;;;;;1924587;74;21197;-53
2023/04/22 04:36:28;;;;;;;4.97;1.47;;;12.30;93.40;;;;;;1924639;74;21114;-52
2023/04/22 04:38:58;;;;;;;1.90;1.05;;;12.30;93.00;;;;;;1924294;74;21250;-53
2023/04/22 04:41:28;;;;;;;6.65;2.02;;;12.30;93.00;;;;;;1924727;74;21058;-50
2023/04/22 04:43:59;;;;;;;4.12;1.30;;;12.40;93.00;;;;;;1916036;74;21154;-52
2023/04/22 04:46:31;;;;;;;2.62;2.00;;;12.40;93.10;;;;;;1904795;74;21019;-50
2023/04/22 04:49:00;;;;;;;1.62;1.05;;;12.40;93.00;;;;;;1905196;75;21099;-53
2023/04/22 04:51:31;;;;;;;7.90;1.70;;;12.50;93.10;;;;;;1905176;74;21039;-52
2023/04/22 04:54:01;;;;;;;4.67;0.93;;;12.50;93.00;;;;;;1905192;75;21003;-52
2023/04/22 04:56:32;;;;;;;1.82;0.85;;;12.60;92.90;;;;;;1904884;75;20999;-51
2023/04/22 04:59:01;;;;;;;5.37;1.15;;;12.70;92.80;;;;;;1905302;75;21531;-53
2023/04/22 05:01:31;;;;;;;1.60;1.32;;;12.70;92.80;;;;;;1905388;75;21137;-49
2023/04/22 05:04:02;;;;;;;3.05;1.55;;;12.80;92.80;;;;;;1905038;74;21025;-52
2023/04/22 05:06:31;;;;;;;2.55;1.22;;;12.90;92.70;;;;;;1905255;75;21055;-52
2023/04/22 05:09:02;;;;;;;3.72;1.27;;;13.00;92.50;;;;;;1905034;74;21080;-52
2023/04/22 05:11:31;;;;;;;2.25;0.95;;;13.00;92.30;;;;;;1905353;74;21069;-52
2023/04/22 05:14:02;;;;;;;2.50;1.10;;;13.00;92.30;;;;;;1905363;75;21015;-54
2023/04/22 05:16:33;;;;;;;4.17;1.12;;;13.00;92.40;;;;;;1905036;74;21046;-53
2023/04/22 05:19:02;;;;;;;4.62;1.87;;;13.00;92.20;;;;;;1905462;75;21139;-53
2023/04/22 05:21:31;;;;;;;11.65;6.03;;;13.10;92.30;;;;;;1905236;75;21126;-53
2023/04/22 05:24:01;;;;;;;2.90;1.90;;;13.00;92.20;;;;;;1905291;75;21032;-53
2023/04/22 05:26:30;;;;;;;5.92;3.27;;;13.00;92.10;;;;;;1905194;75;21083;-53
2023/04/22 05:29:00;;;;;;;9.53;6.53;;;13.00;91.90;;;;;;1905163;75;21075;-52
2023/04/22 05:31:29;;;;;;;7.58;1.12;;;13.00;92.10;;;;;;1905360;75;21020;-53
2023/04/22 05:33:58;;;;;;;4.05;1.15;;;13.00;92.10;;;;;;1905474;75;21088;-53
2023/04/22 05:36:28;;;;;;;5.20;1.62;;;13.00;92.30;;;;;;1905355;75;21023;-53
2023/04/22 05:38:57;;;;;;;2.35;0.80;;;13.10;92.30;;;;;;1905346;75;21008;-52
2023/04/22 05:41:26;;;;;;;2.42;1.10;;;13.10;92.20;;;;;;1905429;75;21066;-53
2023/04/22 05:43:56;;;;;;;4.62;1.00;;;13.20;92.20;;;;;;1908589;74;21022;-54
2023/04/22 05:46:27;;;;;;;2.83;1.00;;;13.20;92.30;;;;;;1924306;74;21283;-53
2023/04/22 05:48:57;;;;;;;2.70;1.98;;;13.30;92.30;;;;;;1924728;74;21042;-52
2023/04/22 05:51:28;;;;;;;2.80;1.00;;;13.40;92.30;;;;;;1921449;74;21088;-53
2023/04/22 05:53:57;;;;;;;1.45;0.90;;;13.40;92.10;;;;;;1924919;74;21019;-53
2023/04/22 05:56:26;;;;;;;1.37;0.75;;;13.50;92.10;;;;;;1924653;74;21097;-53
2023/04/22 05:58:55;;;;;;;0.90;0.60;;;13.60;92.10;;;;;;1924703;74;21042;-54
2023/04/22 06:01:25;;;;;;;5.22;1.10;;;13.60;92.10;;;;;;1924794;74;21141;-52
2023/04/22 06:04:00;;;;;;;7.63;0.90;;;13.60;92.10;;;;;;1924538;74;21071;-53
2023/04/22 06:06:31;;;;;;;5.05;0.90;;;13.60;92.10;;;;;;1924536;74;21093;-52
2023/04/22 06:09:00;;;;;;;2.25;1.20;;;13.60;92.20;;;;;;1924598;74;21128;-53
2023/04/22 06:11:29;;;;;;;1.47;0.80;;;13.50;92.20;;;;;;1924440;74;21073;-53
2023/04/22 06:13:58;;;;;;;2.80;1.62;;;13.50;92.30;;;;;;1924538;74;21615;-53
2023/04/22 06:16:27;;;;;;;1.85;0.70;;;13.50;92.40;;;;;;1924492;74;21616;-54
2023/04/22 06:18:56;;;;;;;1.30;0.60;;;13.50;92.40;;;;;;1924756;74;21177;-52
2023/04/22 06:21:27;;;;;;;1.90;1.05;;;13.50;92.40;;;;;;1924720;74;21268;-54
2023/04/22 06:23:58;;;;;;;1.10;1.00;;;13.40;92.60;;;;;;1924802;74;21458;-53
2023/04/22 06:26:27;;;;;;;3.00;1.00;;;13.40;92.70;;;;;;1924910;74;21043;-53
2023/04/22 06:28:57;;;;;;;1.67;1.30;;;13.40;92.80;;;;;;1924930;74;21074;-53
2023/04/22 06:31:26;;;;;;;2.05;0.82;;;13.50;92.80;;;;;;1924876;74;21106;-53
2023/04/22 06:33:55;;;;;;;2.47;1.30;;;13.50;92.80;;;;;;1924887;74;21599;-54
2023/04/22 06:36:26;;;;;;;2.00;1.17;;;13.60;92.80;;;;;;1924800;74;21073;-53
2023/04/22 06:38:57;;;;;;;3.92;1.35;;;13.60;92.80;;;;;;1924172;74;21220;-53
2023/04/22 06:41:33;;;;;;;5.20;1.95;;;13.70;92.80;;;;;;1874977;74;21034;-54
2023/04/22 06:44:04;;;;;;;2.12;1.27;;;13.80;92.80;;;;;;1924281;74;21112;-54
2023/04/22 06:46:35;;;;;;;4.33;2.10;;;13.90;92.70;;;;;;1924783;74;21085;-53
2023/04/22 06:49:12;;;;;;;2.58;1.27;;;13.90;92.60;;;;;;1874994;74;21034;-54
2023/04/22 06:52:01;;;;;;;2.40;1.55;;;14.00;92.60;;;;;;1923464;74;21126;-53
2023/04/22 06:54:30;;;;;;;2.40;1.30;;;14.10;92.40;;;;;;1924780;74;21046;-53
2023/04/22 06:57:00;;;;;;;2.75;1.35;;;14.10;92.40;;;;;;1924716;74;21043;-53
2023/04/22 06:59:29;;;;;;;4.60;1.75;;;14.10;92.00;;;;;;1924852;74;21060;-53
2023/04/22 07:01:58;;;;;;;2.55;1.50;;;14.10;92.00;;;;;;1924758;74;20999;-53
2023/04/22 07:04:30;;;;;;;5.72;1.80;;;14.10;91.60;;;;;;1924617;74;21490;-54
2023/04/22 07:06:59;;;;;;;2.98;1.57;;;14.10;91.60;;;;;;1924615;74;21035;-54
2023/04/22 07:09:30;;;;;;;2.25;1.67;;;14.20;91.90;;;;;;1924806;74;21042;-51
2023/04/22 07:12:00;;;;;;;4.20;1.75;;;14.20;91.70;;;;;;1924679;74;21010;-54
2023/04/22 07:14:31;;;;;;;3.67;2.20;;;14.20;91.70;;;;;;1924402;74;21030;-53
2023/04/22 07:17:00;;;;;;;3.35;1.10;;;14.20;91.90;;;;;;1924819;74;21065;-53
2023/04/22 07:19:29;;;;;;;3.45;2.12;;;14.20;91.40;;;;;;1924751;74;21002;-53
2023/04/22 07:21:58;;;;;;;7.90;1.85;;;14.10;91.60;;;;;;1924799;74;21042;-52
2023/04/22 07:24:28;;;;;;;6.80;2.25;;;14.10;91.50;;;;;;1924863;74;21014;-52
2023/04/22 07:26:57;;;;;;;6.58;2.50;;;14.10;91.70;;;;;;1924815;74;21078;-54
2023/04/22 07:29:26;;;;;;;6.92;1.62;;;14.10;91.70;;;;;;1924792;74;21096;-52
2023/04/22 07:31:55;;;;;;;6.47;2.35;;;14.00;91.60;;;;;;1924756;74;20995;-53
2023/04/22 07:34:24;;;;;;;5.95;2.27;;;14.00;91.60;;;;;;1924563;74;21063;-51
2023/04/22 07:36:53;;;;;;;3.72;1.75;;;14.00;91.70;;;;;;1924682;74;21096;-53
2023/04/22 07:39:23;;;;;;;3.67;2.00;;;14.00;91.70;;;;;;1924734;74;21528;-52
2023/04/22 07:41:52;;;;;;;2.00;1.40;;;14.00;91.50;;;;;;1924591;74;21006;-51
2023/04/22 07:44:21;;;;;;;6.05;2.00;;;14.00;91.40;;;;;;1924590;74;21003;-54
2023/04/22 07:46:50;;;;;;;5.65;1.85;;;14.00;91.30;;;;;;1908359;74;21043;-53
2023/04/22 07:49:19;;;;;;;15.15;3.75;;;14.00;91.30;;;;;;1905320;75;21073;-52
2023/04/22 07:51:48;;;;;;;4.70;2.25;;;14.00;91.40;;;;;;1905165;74;21073;-51
2023/04/22 07:54:17;;;;;;;47.33;20.00;;;14.00;91.40;;;;;;1905176;75;21474;-54
2023/04/22 07:56:46;;;;;;;10.13;2.47;;;14.00;91.30;;;;;;1905215;75;21024;-52
2023/04/22 07:59:15;;;;;;;2.42;1.55;;;14.00;91.40;;;;;;1905135;75;21087;-52
2023/04/22 08:01:45;;;;;;;3.52;2.25;;;14.00;91.30;;;;;;1905169;75;21035;-54
2023/04/22 08:04:14;;;;;;;5.17;1.98;;;14.00;91.10;;;;;;1905145;75;21027;-53
2023/04/22 08:06:43;;;;;;;6.67;1.57;;;14.00;91.20;;;;;;1905186;75;21015;-53
2023/04/22 08:09:13;;;;;;;9.23;3.80;;;14.00;91.10;;;;;;1905197;75;21071;-53
2023/04/22 08:11:42;;;;;;;4.30;1.45;;;14.10;91.20;;;;;;1905113;75;21062;-53
2023/04/22 08:14:11;;;;;;;4.40;2.10;;;14.20;91.10;;;;;;1905157;75;20999;-53
2023/04/22 08:16:42;;;;;;;3.72;1.72;;;14.20;91.10;;;;;;1905172;75;21039;-53
2023/04/22 08:19:11;;;;;;;7.17;2.00;;;14.30;90.90;;;;;;1905203;75;21008;-54
2023/04/22 08:21:40;;;;;;;4.55;2.22;;;14.40;91.00;;;;;;1905284;75;21008;-54
2023/04/22 08:24:09;;;;;;;3.05;1.37;;;14.60;91.10;;;;;;1905142;75;21008;-52
2023/04/22 08:26:39;;;;;;;2.80;1.20;;;14.70;90.20;;;;;;1905261;75;21036;-53
2023/04/22 08:29:08;;;;;;;4.37;1.82;;;14.70;89.70;;;;;;1905221;75;21114;-54
2023/04/22 08:31:38;;;;;;;2.20;1.15;;;14.70;89.80;;;;;;1905291;75;21043;-53
2023/04/22 08:34:07;;;;;;;2.17;1.62;;;14.70;89.00;;;;;;1905237;74;21121;-54
2023/04/22 08:36:36;;;;;;;2.77;1.02;;;14.80;90.00;;;;;;1905254;75;20979;-51
2023/04/22 08:39:05;;;;;;;11.90;5.58;;;14.80;89.20;;;;;;1905057;75;21458;-54
2023/04/22 08:41:36;;;;;;;14.50;6.20;;;14.80;89.30;;;;;;1905188;74;21078;-53
2023/04/22 08:44:05;;;;;;;4.65;1.77;;;14.90;89.30;;;;;;1905182;74;21062;-53
2023/04/22 08:46:35;;;;;;;5.10;1.80;;;14.90;88.40;;;;;;1905012;75;21174;-54
2023/04/22 08:49:04;;;;;;;3.20;1.30;;;15.00;88.60;;;;;;1905055;75;21020;-53
2023/04/22 08:51:34;;;;;;;1.75;1.25;;;14.90;87.50;;;;;;1905193;75;21152;-54
2023/04/22 08:54:03;;;;;;;4.50;1.50;;;14.90;87.80;;;;;;1905202;75;21007;-54
2023/04/22 08:56:34;;;;;;;1.52;0.80;;;15.00;87.30;;;;;;1905170;75;21000;-54
2023/04/22 08:59:03;;;;;;;2.27;1.12;;;15.00;87.70;;;;;;1905292;75;21077;-53
2023/04/22 09:01:33;;;;;;;2.90;1.30;;;15.10;87.60;;;;;;1905278;75;20995;-54
2023/04/22 09:04:03;;;;;;;3.17;1.60;;;15.20;87.40;;;;;;1905087;75;21064;-55
2023/04/22 09:06:33;;;;;;;2.40;1.72;;;15.20;88.10;;;;;;1905026;75;21109;-54
2023/04/22 09:09:02;;;;;;;7.58;2.00;;;15.30;87.60;;;;;;1905311;75;21015;-54
2023/04/22 09:11:33;;;;;;;3.60;2.00;;;15.30;87.40;;;;;;1905193;75;21007;-54
2023/04/22 09:14:03;;;;;;;3.87;1.72;;;15.40;87.40;;;;;;1905091;75;21073;-55
2023/04/22 09:16:33;;;;;;;1.98;1.30;;;15.50;88.40;;;;;;1904278;74;21041;-53
2023/04/22 09:19:02;;;;;;;6.65;1.60;;;15.50;87.00;;;;;;1905126;74;20987;-53
2023/04/22 09:21:33;;;;;;;5.05;1.75;;;15.50;87.50;;;;;;1905056;75;21015;-54
2023/04/22 09:24:02;;;;;;;3.60;1.25;;;15.50;87.70;;;;;;1905209;75;21066;-54
2023/04/22 09:26:32;;;;;;;1.75;1.30;;;15.60;87.40;;;;;;1904970;75;21035;-54
2023/04/22 09:29:03;;;;;;;3.22;1.15;;;15.60;86.60;;;;;;1905274;75;20996;-53
2023/04/22 09:31:33;;;;;;;4.50;1.42;;;15.60;86.60;;;;;;1905175;75;21489;-53
2023/04/22 09:34:02;;;;;;;5.92;2.45;;;15.60;87.10;;;;;;1905058;75;21065;-54
2023/04/22 09:36:37;;;;;;;4.45;1.45;;;15.50;87.00;;;;;;1905107;75;20995;-54
2023/04/22 09:39:10;;;;;;;2.70;1.72;;;15.50;86.90;;;;;;1903759;74;21044;-53
2023/04/22 09:41:42;;;;;;;3.70;1.30;;;15.40;87.00;;;;;;1903945;74;21146;-54
2023/04/22 09:44:11;;;;;;;;;;;15.30;86.10;;;;;;1907964;75;21012;-54
2023/04/22 09:46:42;;;;;;;3.42;1.50;;;15.20;85.30;;;;;;1905184;74;20133;-54
2023/04/22 09:49:11;;;;;;;2.27;1.10;;;15.20;86.10;;;;;;1905383;75;21015;-55
2023/04/22 09:51:41;;;;;;;5.47;1.80;;;15.20;86.10;;;;;;1905378;75;21000;-54
2023/04/22 09:54:11;;;;;;;5.45;2.60;;;15.20;86.00;;;;;;1905239;75;21089;-54
2023/04/22 09:56:51;;;;;;;4.62;1.65;;;15.20;86.00;;;;;;1905339;74;21080;-53
2023/04/22 09:59:22;;;;;;;3.27;1.50;;;15.20;86.20;;;;;;1905344;75;21012;-54
2023/04/22 10:01:53;;;;;;;6.45;1.37;;;15.20;86.30;;;;;;1905301;74;21085;-54
2023/04/22 10:04:24;;;;;;;4.05;1.22;;;15.20;85.70;;;;;;1905327;75;21007;-54
2023/04/22 10:06:53;;;;;;;2.58;1.75;;;15.10;85.70;;;;;;1905453;75;21008;-55
2023/04/22 10:09:24;;;;;;;4.47;1.30;;;15.10;85.30;;;;;;1905374;75;21000;-54
2023/04/22 10:11:55;;;;;;;3.08;1.17;;;15.00;85.40;;;;;;1905335;75;21096;-54
2023/04/22 10:14:25;;;;;;;2.27;1.10;;;15.00;84.80;;;;;;1905422;75;21020;-55
2023/04/22 10:17:02;;;;;;;2.65;1.55;;;15.00;84.80;;;;;;1905328;74;21080;-54
2023/04/22 10:19:32;;;;;;;1.95;1.22;;;14.90;85.50;;;;;;1905414;75;21032;-55
2023/04/22 10:22:03;;;;;;;5.95;2.00;;;14.90;85.30;;;;;;1905398;75;21016;-53
2023/04/22 10:24:36;;;;;;;6.20;1.85;;;15.00;85.40;;;;;;1905348;75;21004;-54
2023/04/22 10:27:07;;;;;;;4.80;1.60;;;15.00;85.90;;;;;;1905284;75;21023;-55
2023/04/22 10:29:38;;;;;;;5.25;1.50;;;15.00;85.40;;;;;;1905327;75;21004;-54
2023/04/22 10:32:22;;;;;;;6.62;1.85;;;15.10;85.50;;;;;;1905200;74;21089;-54
2023/04/22 10:34:54;;;;;;;3.50;1.40;;;15.10;85.60;;;;;;1905622;75;21065;-54
2023/04/22 10:37:25;;;;;;;3.75;1.20;;;15.20;84.90;;;;;;1901177;74;21520;-55
2023/04/22 10:40:09;;;;;;;2.75;1.00;;;15.20;83.90;;;;;;1905354;75;20976;-54
2023/04/22 10:42:43;;;;;;;2.58;1.37;;;15.20;84.50;;;;;;1905129;75;21129;-54
2023/04/22 10:45:14;;;;;;;4.55;1.30;;;15.20;84.50;;;;;;1905676;75;21458;-55
2023/04/22 10:47:43;;;;;;;6.20;2.15;;;15.20;84.30;;;;;;1905440;75;21031;-55
2023/04/22 10:50:22;;;;;;;1.32;1.20;;;15.20;84.60;;;;;;1905337;75;21129;-55
2023/04/22 10:52:57;;;;;;;2.02;1.25;;;15.20;85.10;;;;;;1905478;75;21016;-55
2023/04/22 10:55:27;;;;;;;2.10;1.15;;;15.30;84.90;;;;;;1905415;75;21035;-54
2023/04/22 10:57:58;;;;;;;1.35;1.22;;;15.30;85.10;;;;;;1903329;74;21442;-55
2023/04/22 11:00:42;;;;;;;4.92;2.77;;;15.30;85.00;;;;;;1905258;75;21081;-54
2023/04/22 11:03:13;;;;;;;1.85;1.27;;;15.30;85.00;;;;;;1905304;75;21000;-55
2023/04/22 11:05:43;;;;;;;3.58;1.00;;;15.20;84.80;;;;;;1905267;75;21039;-54
2023/04/22 11:08:15;;;;;;;4.78;1.32;;;15.20;84.60;;;;;;1905267;74;21027;-54
2023/04/22 11:10:46;;;;;;;1.80;1.07;;;15.20;84.60;;;;;;1905436;75;21011;-55
2023/04/22 11:13:20;;;;;;;5.62;1.65;;;15.20;85.00;;;;;;1905235;75;21019;-55
2023/04/22 11:15:52;;;;;;;3.87;1.27;;;15.10;85.50;;;;;;1905510;75;21081;-54
2023/04/22 11:18:23;;;;;;;2.35;1.30;;;15.10;86.50;;;;;;1905437;75;21024;-55
2023/04/22 11:20:53;;;;;;;2.85;2.20;;;15.00;87.40;;;;;;1905307;75;21077;-54
2023/04/22 11:23:27;;;;;;;8.48;2.25;;;15.00;87.70;;;;;;1905358;75;21450;-54
2023/04/22 11:26:00;;;;;;;3.05;1.92;;;15.10;88.00;;;;;;1905685;75;21028;-55
2023/04/22 11:28:30;;;;;;;3.27;1.47;;;15.20;88.10;;;;;;1905362;75;21081;-54
2023/04/22 11:31:04;;;;;;;5.05;1.55;;;15.20;87.80;;;;;;1905288;75;21000;-54
2023/04/22 11:33:34;;;;;;;7.50;4.43;;;15.20;87.60;;;;;;1905358;74;21023;-55
2023/04/22 11:36:03;;;;;;;2.50;1.20;;;15.20;87.70;;;;;;1905323;75;20999;-55
2023/04/22 11:38:32;;;;;;;2.70;1.32;;;15.20;87.60;;;;;;1905328;75;20995;-55
2023/04/22 11:41:03;;;;;;;7.83;3.25;;;15.20;87.20;;;;;;1905401;75;20983;-55
2023/04/22 11:43:32;;;;;;;3.87;2.60;;;15.10;86.70;;;;;;1905399;75;21035;-55
2023/04/22 11:46:03;;;;;;;5.33;1.72;;;15.00;87.00;;;;;;1905319;75;21023;-55
2023/04/22 11:48:33;;;;;;;3.35;1.10;;;15.00;88.00;;;;;;1915345;74;21040;-54
2023/04/22 11:51:12;;;;;;;2.92;1.02;;;15.00;88.30;;;;;;1924805;74;21080;-55
2023/04/22 11:53:44;;;;;;;1.02;0.90;;;15.10;87.80;;;;;;1924729;74;21116;-55
2023/04/22 11:56:13;;;;;;;3.27;1.17;;;15.20;87.90;;;;;;1923467;74;21042;-55
2023/04/22 11:58:42;;;;;;;3.45;0.90;;;15.30;87.60;;;;;;1924850;74;21104;-55
2023/04/22 12:01:13;;;;;;;1.17;0.65;;;15.40;87.20;;;;;;1924675;74;21085;-54
2023/04/22 12:03:42;;;;;;;1.00;0.70;;;15.40;87.20;;;;;;1924714;74;20994;-54
2023/04/22 12:06:11;;;;;;;0.70;0.70;;;15.40;87.60;;;;;;1924771;74;21080;-54
2023/04/22 12:08:46;;;;;;;2.55;0.80;;;15.30;88.20;;;;;;1924706;74;21465;-53
2023/04/22 12:11:14;;;;;;;1.52;0.85;;;15.30;88.70;;;;;;1925001;74;21030;-55
2023/04/22 12:13:45;;;;;;;3.10;1.52;;;15.30;88.30;;;;;;1924607;74;21034;-54
2023/04/22 12:16:16;;;;;;;1.72;0.70;;;15.40;88.30;;;;;;1924579;74;21084;-55
2023/04/22 12:18:51;;;;;;;3.70;1.00;;;15.50;87.90;;;;;;1924837;74;21088;-54
2023/04/22 12:21:21;;;;;;;;;;;15.50;87.80;;;;;;1927763;74;21522;-55
2023/04/22 12:23:54;;;;;;;3.02;1.10;;;15.60;86.00;;;;;;1924832;74;20144;-54
2023/04/22 12:26:25;;;;;;;4.37;1.23;;;15.60;86.10;;;;;;1924995;74;21418;-55
2023/04/22 12:28:56;;;;;;;2.50;1.17;;;15.50;86.40;;;;;;1924810;74;21132;-55
2023/04/22 12:31:26;;;;;;;7.67;1.92;;;15.50;86.20;;;;;;1924930;74;21072;-55
2023/04/22 12:33:56;;;;;;;3.75;0.93;;;15.50;86.10;;;;;;1924816;74;21080;-54
2023/04/22 12:36:25;;;;;;;5.17;1.60;;;15.50;85.70;;;;;;1924719;74;21050;-54
2023/04/22 12:38:55;;;;;;;1.45;0.80;;;15.50;85.00;;;;;;1924779;74;21038;-55
2023/04/22 12:41:24;;;;;;;2.87;1.30;;;15.50;84.60;;;;;;1924649;74;21084;-55
2023/04/22 12:43:54;;;;;;;6.95;1.47;;;15.40;84.80;;;;;;1924727;74;21002;-55
2023/04/22 12:46:23;;;;;;;3.35;1.30;;;15.30;85.00;;;;;;1924614;74;21010;-55
2023/04/22 12:48:52;;;;;;;3.47;1.32;;;15.30;85.20;;;;;;1917061;74;21032;-55
2023/04/22 12:51:21;;;;;;;5.95;1.85;;;15.30;84.90;;;;;;1905217;75;21089;-55
2023/04/22 12:53:50;;;;;;;2.67;1.62;;;15.20;85.00;;;;;;1905230;75;21113;-54
2023/04/22 12:56:19;;;;;;;10.90;2.17;;;15.20;85.10;;;;;;1905204;74;21567;-54
2023/04/22 12:58:48;;;;;;;6.40;1.90;;;15.20;85.10;;;;;;1905356;75;21099;-55
2023/04/22 13:01:17;;;;;;;4.50;1.70;;;15.20;84.60;;;;;;1905221;75;21023;-55
2023/04/22 13:03:46;;;;;;;3.05;1.40;;;15.20;84.40;;;;;;1905206;75;21036;-54